Time;durP1;ratioP1;P1;durP2;ratioP2;P2;SDS_P1;SDS_P2;PMS_P1;PMS_P2;Temp;Humidity;BMP_temperature;BMP_pressure;BME280_temperature;BME280_humidity;BME280_pressure;Samples;Min_cycle;Max_cycle;Signal;HPM_P1;HPM_P2
2023/08/26 05:27:40;;;;;;;15.47;12.50;;;20.80;99.90;;;;;;6207241;22;20202;-83
2023/08/26 05:47:02;;;;;;;15.53;12.77;;;21.10;99.90;;;;;;6115481;23;20636;-79
2023/08/26 05:59:17;;;;;;;;;;;;;;;;;;;;;
2023/08/26 06:06:17;;;;;;;17.30;12.93;;;21.60;99.90;;;;;;5786198;24;20633;-80
2023/08/26 06:09:45;;;;;;;20.03;12.97;;;21.60;99.90;;;;;;5766901;24;20232;-78
2023/08/26 06:30:33;;;;;;;18.47;12.30;;;21.90;99.90;;;;;;5303806;22;21759433;-84
2023/08/26 06:33:44;;;;;;;;;;;;;;;;;;;;;
2023/08/26 06:37:28;;;;;;;18.07;12.57;;;22.40;99.90;;;;;;6074372;23;20189;-84
2023/08/26 06:40:54;;;;;;;17.70;13.00;;;22.40;99.90;;;;;;6082271;23;20566;-84
2023/08/26 06:45:14;;;;;;;17.37;12.93;;;22.60;99.90;;;;;;5956373;24;20247;-84
2023/08/26 06:47:46;;;;;;;17.37;11.77;;;22.60;99.90;;;;;;5820377;24;20184;-78
2023/08/26 06:50:40;;;;;;;;;;;;;;;;;;;;;
2023/08/26 06:53:20;;;;;;;16.73;13.33;;;22.80;99.90;;;;;;5797753;24;20204;-78
2023/08/26 06:56:48;;;;;;;14.93;12.23;;;22.80;99.90;;;;;;5796432;24;20286;-79
2023/08/26 07:00:24;;;;;;;20.97;12.57;;;22.90;99.90;;;;;;5807321;24;20191;-82
2023/08/26 07:08:09;;;;;;;20.17;12.53;;;23.20;99.90;;;;;;5748453;24;20670;-84
2023/08/26 07:11:33;;;;;;;16.67;12.10;;;23.30;99.90;;;;;;5794700;24;20187;-84
2023/08/26 07:15:13;;;;;;;;;;;;;;;;;;;;;
2023/08/26 07:18:53;;;;;;;13.97;11.83;;;23.40;99.90;;;;;;5862008;24;20203;-84
2023/08/26 07:32:52;;;;;;;19.63;12.05;;;23.60;99.90;;;;;;5127487;27;20486;-77
2023/08/26 07:36:32;;;;;;;16.13;11.77;;;23.90;99.90;;;;;;5028638;28;20251;-76
2023/08/26 07:40:30;;;;;;;;;;;;;;;;;;;;;
2023/08/26 07:43:33;;;;;;;15.83;11.50;;;24.10;99.90;;;;;;4930704;29;20290;-78
2023/08/26 07:50:31;;;;;;;16.88;11.07;;;24.40;99.90;;;;;;4924583;29;20222;-77
2023/08/26 07:53:37;;;;;;;14.15;11.18;;;24.50;99.90;;;;;;4912121;29;20219;-79
2023/08/26 07:57:02;;;;;;;;;;;;;;;;;;;;;
2023/08/26 08:00:13;;;;;;;13.63;10.13;;;24.60;99.90;;;;;;4963029;28;20328;-78
2023/08/26 08:03:24;;;;;;;;;;;;;;;;;;;;;
2023/08/26 08:07:08;;;;;;;13.93;9.23;;;24.90;99.90;;;;;;4900018;29;20223;-78
2023/08/26 08:10:33;;;;;;;17.02;9.75;;;25.90;99.90;;;;;;4852463;29;20725;-77
2023/08/26 08:13:47;;;;;;;12.43;8.82;;;27.70;99.90;;;;;;4907425;29;20227;-78
2023/08/26 08:16:20;;;;;;;15.70;9.30;;;28.60;99.90;;;;;;4907124;29;20264;-78
2023/08/26 08:19:48;;;;;;;9.95;7.70;;;29.50;99.90;;;;;;4875059;29;20208;-78
2023/08/26 08:22:43;;;;;;;10.77;7.68;;;30.10;99.90;;;;;;4944456;29;20297;-75
2023/08/26 08:25:27;;;;;;;9.35;7.13;;;30.60;99.90;;;;;;4933431;29;20199;-77
2023/08/26 08:28:02;;;;;;;8.48;7.15;;;30.50;99.90;;;;;;4982383;28;20199;-78
2023/08/26 08:30:57;;;;;;;12.30;7.53;;;31.00;99.90;;;;;;5002205;28;20236;-81
2023/08/26 08:33:53;;;;;;;10.57;7.07;;;31.50;99.90;;;;;;4991766;28;20279;-83
2023/08/26 08:36:58;;;;;;;8.98;6.72;;;31.70;99.90;;;;;;4975843;28;20638;-84
2023/08/26 08:39:47;;;;;;;9.38;6.53;;;31.70;99.90;;;;;;4991941;28;20748;-78
2023/08/26 08:43:02;;;;;;;8.73;6.30;;;31.50;99.90;;;;;;4982210;28;20204;-77
2023/08/26 08:45:52;;;;;;;8.90;6.65;;;31.40;99.90;;;;;;4997529;28;20252;-77
2023/08/26 08:48:57;;;;;;;10.63;6.53;;;31.80;99.90;;;;;;5065869;28;20229;-83
2023/08/26 08:51:56;;;;;;;11.25;6.57;;;31.60;99.90;;;;;;5072390;28;20205;-84
2023/08/26 08:54:36;;;;;;;7.47;5.85;;;31.60;99.90;;;;;;5072828;28;20201;-83
2023/08/26 08:57:39;;;;;;;8.88;6.30;;;31.80;99.90;;;;;;5072304;28;20300;-84
2023/08/26 09:00:31;;;;;;;8.25;5.88;;;31.60;99.90;;;;;;4991267;28;20245;-82
2023/08/26 09:03:26;;;;;;;6.63;5.82;;;31.60;99.90;;;;;;4989474;28;20205;-80
2023/08/26 09:06:07;;;;;;;6.30;5.25;;;31.30;99.90;;;;;;4991429;28;20209;-83
2023/08/26 09:09:30;;;;;;;;;;;;;;;;;;;;;
2023/08/26 09:12:29;;;;;;;8.43;5.70;;;31.90;99.90;;;;;;4991151;28;20227;-84
2023/08/26 09:15:32;;;;;;;6.28;5.45;;;31.90;99.90;;;;;;4990151;28;20200;-83
2023/08/26 09:18:23;;;;;;;7.13;4.82;;;31.40;99.90;;;;;;4990862;28;20203;-84
2023/08/26 09:21:19;;;;;;;9.70;4.68;;;31.60;99.90;;;;;;4992443;28;20304;-82
2023/08/26 09:23:51;;;;;;;5.95;4.18;;;31.80;99.90;;;;;;4984084;28;20220;-82
2023/08/26 09:26:59;;;;;;;6.65;3.97;;;32.10;99.90;;;;;;5071486;28;20657;-82
2023/08/26 09:29:27;;;;;;;4.75;3.75;;;32.30;99.90;;;;;;5072167;28;20229;-84
2023/08/26 09:31:59;;;;;;;5.95;3.83;;;32.20;99.90;;;;;;5071109;28;20656;-76
2023/08/26 09:34:37;;;;;;;6.88;3.80;;;32.40;99.90;;;;;;5074137;28;20685;-78
2023/08/26 09:37:12;;;;;;;3.33;3.03;;;32.30;99.90;;;;;;5072630;28;20222;-77
2023/08/26 09:40:20;;;;;;;4.30;2.97;;;32.70;99.90;;;;;;5071787;28;20279;-75
2023/08/26 09:42:55;;;;;;;4.88;2.95;;;33.10;99.90;;;;;;5070986;28;20198;-76
2023/08/26 09:45:49;;;;;;;4.35;2.90;;;33.40;99.90;;;;;;5072043;28;20188;-78
2023/08/26 09:49:38;;;;;;;5.40;2.53;;;33.50;99.90;;;;;;5002589;28;20582;-78
2023/08/26 10:00:28;;;;;;;4.15;2.25;;;34.30;97.10;;;;;;4906269;29;20206;-80
2023/08/26 10:03:25;;;;;;;3.72;2.35;;;34.30;95.50;;;;;;4851033;29;20697;-76
2023/08/26 10:20:28;;;;;;;4.47;2.47;;;34.00;96.10;;;;;;6144039;22;2618228;-80
2023/08/26 10:24:24;;;;;;;;;;;;;;;;;;;;;
2023/08/26 10:27:45;;;;;;;2.90;2.60;;;34.00;95.90;;;;;;5986337;23;20175;-79
2023/08/26 10:31:14;;;;;;;3.55;2.35;;;33.10;96.00;;;;;;5922294;24;20638;-78
2023/08/26 10:39:42;;;;;;;3.47;2.70;;;32.80;95.70;;;;;;5815521;24;20526;-79
2023/08/26 10:43:35;;;;;;;6.85;2.90;;;32.00;97.90;;;;;;5068844;27;20490;-78
2023/08/26 10:47:12;;;;;;;4.78;2.97;;;31.70;99.40;;;;;;4972334;28;20211;-78
2023/08/26 10:50:47;;;;;;;;;;;;;;;;;;;;;
2023/08/26 10:54:05;;;;;;;4.10;2.80;;;30.70;99.90;;;;;;4930346;29;20261;-78
2023/08/26 10:57:26;;;;;;;4.05;2.97;;;30.60;99.90;;;;;;4906899;29;20502;-82
2023/08/26 10:59:54;;;;;;;5.57;3.33;;;30.80;99.90;;;;;;4870336;29;20260;-83
2023/08/26 11:02:46;;;;;;;4.60;3.00;;;30.80;99.90;;;;;;4840562;29;20210;-85
2023/08/26 12:16:01;;;;;;;4.57;2.90;;;30.70;99.80;;;;;;5291622;23;20241;-88
2023/08/26 13:03:53;;;;;;;5.32;2.65;;;32.80;96.20;;;;;;4995434;23;20688;-77
2023/08/26 13:19:58;;;;;;;;;;;;;;;;;;;;;
2023/08/26 13:26:34;;;;;;;5.15;3.08;;;31.50;98.00;;;;;;4666442;30;20203;-88
2023/08/26 13:29:46;;;;;;;6.35;3.13;;;31.20;98.30;;;;;;4657482;30;20200;-87
2023/08/26 14:20:22;;;;;;;6.50;3.60;;;30.60;99.90;;;;;;5455352;22;16159694;-81
2023/08/26 14:23:21;;;;;;;6.50;3.60;;;30.30;99.90;;;;;;6078269;23;20629;-80
2023/08/26 14:34:47;;;;;;;;;;;;;;;;;;;;;
2023/08/26 14:37:41;;;;;;;4.53;3.30;;;29.80;99.90;;;;;;5802829;24;20219;-78
2023/08/26 14:40:08;;;;;;;6.28;3.58;;;29.90;99.90;;;;;;5826801;24;20191;-79
2023/08/26 14:42:37;;;;;;;6.05;3.80;;;30.00;99.90;;;;;;5805330;24;20226;-78
2023/08/26 14:45:04;;;;;;;8.05;3.80;;;30.00;99.90;;;;;;5846777;24;20167;-78
2023/08/26 14:47:39;;;;;;;4.63;3.80;;;30.00;99.90;;;;;;5776537;24;20202;-78
2023/08/26 14:50:23;;;;;;;5.65;3.53;;;29.80;99.90;;;;;;5798338;24;20166;-78
2023/08/26 14:53:10;;;;;;;5.28;3.97;;;29.80;99.90;;;;;;5799809;24;20192;-79
2023/08/26 14:55:43;;;;;;;6.95;3.70;;;29.90;99.90;;;;;;5820339;24;20232;-90
2023/08/26 14:58:19;;;;;;;6.30;4.10;;;29.70;99.90;;;;;;5815309;24;20163;-89
2023/08/26 15:01:23;;;;;;;4.95;3.60;;;29.50;99.90;;;;;;5764230;24;20184;-87
2023/08/26 15:08:18;;;;;;;6.47;3.75;;;29.60;99.90;;;;;;5863574;24;20199;-90
2023/08/26 15:11:10;;;;;;;6.13;3.42;;;29.30;99.90;;;;;;5885265;24;20188;-89
2023/08/26 15:29:48;;;;;;;6.82;3.40;;;28.90;99.90;;;;;;6115028;23;20638;-80
2023/08/26 15:33:31;;;;;;;4.85;3.90;;;28.70;99.90;;;;;;5971749;23;20191;-80
2023/08/26 15:45:25;;;;;;;6.57;3.65;;;28.30;99.90;;;;;;5755081;24;20170;-84
2023/08/26 15:48:28;;;;;;;6.63;3.78;;;28.40;99.90;;;;;;5838048;24;20183;-79
2023/08/26 16:00:55;;;;;;;7.03;3.63;;;28.20;99.90;;;;;;5976930;24;20180;-86
2023/08/26 16:03:48;;;;;;;7.88;3.72;;;28.10;99.90;;;;;;5961232;24;20200;-85
2023/08/26 16:06:42;;;;;;;8.05;3.83;;;28.10;99.90;;;;;;5977382;24;20195;-87
2023/08/26 16:10:22;;;;;;;12.82;5.00;;;28.00;99.90;;;;;;5955800;24;20176;-86
2023/08/26 16:17:18;;;;;;;4.72;3.80;;;28.00;99.90;;;;;;5076238;27;1530792;-79
2023/08/26 16:19:58;;;;;;;5.45;4.30;;;28.00;99.90;;;;;;5076095;28;20283;-81
2023/08/26 16:22:48;;;;;;;11.57;5.75;;;28.00;99.90;;;;;;5079770;28;20213;-82
2023/08/26 16:25:30;;;;;;;10.10;5.38;;;28.00;99.90;;;;;;5052998;28;20193;-84
2023/08/26 16:28:33;;;;;;;10.35;5.80;;;27.70;99.90;;;;;;5054510;28;20190;-84
2023/08/26 16:31:24;;;;;;;14.05;6.18;;;27.50;99.90;;;;;;4970843;28;20201;-85
2023/08/26 16:34:03;;;;;;;7.03;4.63;;;27.50;99.90;;;;;;4986581;28;20193;-82
2023/08/26 16:36:39;;;;;;;7.93;4.65;;;27.40;99.90;;;;;;4967618;28;20240;-83
2023/08/26 16:39:10;;;;;;;8.43;4.40;;;27.40;99.90;;;;;;4968198;28;20208;-78
2023/08/26 16:41:50;;;;;;;9.00;4.90;;;27.40;99.90;;;;;;4966917;28;20300;-79
2023/08/26 16:44:52;;;;;;;6.25;4.45;;;27.30;99.90;;;;;;4950757;28;20567;-78
2023/08/26 16:47:45;;;;;;;12.93;5.20;;;27.30;99.90;;;;;;4954302;28;20693;-83
2023/08/26 16:50:51;;;;;;;12.80;4.97;;;27.20;99.90;;;;;;4965405;28;20197;-84
2023/08/26 16:53:30;;;;;;;9.25;4.68;;;27.30;99.90;;;;;;4950305;28;20214;-82
2023/08/26 16:56:15;;;;;;;11.70;5.25;;;27.40;99.90;;;;;;4952436;28;20312;-78
2023/08/26 16:59:08;;;;;;;15.77;5.95;;;27.30;99.90;;;;;;4949875;28;20237;-78
2023/08/26 17:02:08;;;;;;;8.80;5.57;;;27.40;99.90;;;;;;4967120;28;20657;-83
2023/08/26 17:05:19;;;;;;;9.73;5.28;;;27.30;99.90;;;;;;4947923;28;20203;-84
2023/08/26 17:07:57;;;;;;;;;;;;;;;;;;;;;
2023/08/26 17:10:57;;;;;;;;;;;;;;;;;;;;;
2023/08/26 17:13:52;;;;;;;7.60;4.95;;;27.30;99.90;;;;;;5005405;28;20283;-80
2023/08/26 17:16:43;;;;;;;6.05;4.75;;;27.20;99.90;;;;;;5005208;28;20228;-82
2023/08/26 17:19:32;;;;;;;14.63;5.63;;;27.20;99.90;;;;;;4989449;28;20229;-81
2023/08/26 17:22:10;;;;;;;9.60;5.50;;;27.10;99.90;;;;;;4972783;28;20217;-81
2023/08/26 17:24:55;;;;;;;7.18;4.95;;;27.10;99.90;;;;;;4973477;28;20695;-82
2023/08/26 17:27:32;;;;;;;8.90;4.80;;;27.10;99.90;;;;;;4965280;28;20224;-81
2023/08/26 17:30:09;;;;;;;7.57;4.90;;;27.00;99.90;;;;;;4961111;28;20200;-83
2023/08/26 17:32:50;;;;;;;5.88;4.47;;;26.90;99.90;;;;;;4993179;28;20197;-84
2023/08/26 17:35:36;;;;;;;;;;;;;;;;;;;;;
2023/08/26 17:38:30;;;;;;;6.40;5.03;;;26.70;99.90;;;;;;5012485;28;20315;-86
2023/08/26 17:41:19;;;;;;;6.50;4.57;;;26.70;99.90;;;;;;4981303;28;20214;-82
2023/08/26 17:44:07;;;;;;;8.45;4.90;;;26.60;99.90;;;;;;5013106;28;20203;-77
2023/08/26 17:46:43;;;;;;;6.07;4.53;;;26.60;99.90;;;;;;5039499;28;20210;-83
2023/08/26 17:49:25;;;;;;;7.35;4.40;;;26.40;99.90;;;;;;5052384;28;20209;-76
2023/08/26 17:51:56;;;;;;;8.98;5.07;;;26.30;99.90;;;;;;5035236;28;20739;-76
2023/08/26 17:55:00;;;;;;;5.90;4.45;;;26.30;99.90;;;;;;5035485;28;20210;-79
2023/08/26 17:58:04;;;;;;;;;;;;;;;;;;;;;
2023/08/26 18:01:44;;;;;;;7.93;5.10;;;26.20;99.90;;;;;;5048099;28;20195;-78
2023/08/26 18:04:47;;;;;;;7.20;4.90;;;26.10;99.90;;;;;;4960227;28;20261;-80
2023/08/26 18:08:14;;;;;;;;;;;;;;;;;;;;;
2023/08/26 18:11:11;;;;;;;7.72;4.85;;;25.90;99.90;;;;;;4858541;29;20296;-79
2023/08/26 18:13:58;;;;;;;7.50;4.63;;;26.00;99.90;;;;;;4843636;29;20309;-87
2023/08/26 18:16:32;;;;;;;7.90;5.03;;;25.80;99.90;;;;;;4858372;29;20241;-87
2023/08/26 18:19:03;;;;;;;14.85;6.28;;;25.70;99.90;;;;;;4843974;29;20213;-78
2023/08/26 18:21:33;;;;;;;9.00;5.88;;;25.60;99.90;;;;;;4857996;29;20296;-87
2023/08/26 18:24:07;;;;;;;8.15;5.47;;;25.60;99.90;;;;;;4844043;29;20228;-78
2023/08/26 18:26:45;;;;;;;8.23;5.43;;;25.50;99.90;;;;;;4858337;29;20317;-80
2023/08/26 18:30:03;;;;;;;9.30;5.78;;;25.50;99.90;;;;;;4858288;29;20297;-80
2023/08/26 18:33:24;;;;;;;9.15;5.82;;;25.40;99.90;;;;;;4803104;29;20938;-79
2023/08/26 18:36:52;;;;;;;8.52;5.70;;;25.30;99.90;;;;;;4852144;29;20745;-79
2023/08/26 18:40:12;;;;;;;10.35;6.07;;;25.20;99.90;;;;;;4832931;29;20335;-88
2023/08/26 18:42:57;;;;;;;22.92;7.80;;;25.20;99.90;;;;;;4991150;28;20200;-87
2023/08/26 18:45:55;;;;;;;10.80;6.95;;;25.10;99.90;;;;;;4975054;28;20275;-87
2023/08/26 18:48:55;;;;;;;10.30;6.20;;;25.00;99.90;;;;;;4962840;28;20660;-86
2023/08/26 18:51:32;;;;;;;10.57;6.43;;;24.90;99.90;;;;;;4959321;28;20205;-83
2023/08/26 18:54:17;;;;;;;9.32;6.25;;;24.90;99.90;;;;;;4975592;28;20199;-79
2023/08/26 18:56:53;;;;;;;9.63;6.80;;;24.80;99.90;;;;;;4974200;28;20240;-80
2023/08/26 19:24:54;;;;;;;;;;;;;;;;;;;;;
2023/08/26 19:28:36;;;;;;;10.32;7.57;;;24.30;99.90;;;;;;4853838;29;20208;-81
2023/08/26 19:31:27;;;;;;;13.13;8.30;;;24.20;99.90;;;;;;4805186;29;20305;-83
2023/08/26 19:34:14;;;;;;;10.85;7.45;;;24.00;99.90;;;;;;4820392;29;20207;-83
2023/08/26 19:36:51;;;;;;;10.95;8.20;;;24.00;99.90;;;;;;4820302;29;20286;-82
2023/08/26 19:39:19;;;;;;;12.60;8.73;;;24.00;99.90;;;;;;4820920;29;20247;-84
2023/08/26 19:41:50;;;;;;;13.57;8.25;;;23.90;99.90;;;;;;4805422;29;20239;-77
2023/08/26 19:44:23;;;;;;;11.43;8.43;;;23.90;99.90;;;;;;4820727;29;20233;-78
2023/08/26 19:47:07;;;;;;;16.80;8.90;;;23.90;99.90;;;;;;4820579;29;20215;-78
2023/08/26 19:49:50;;;;;;;10.57;8.02;;;23.80;99.90;;;;;;4820257;29;20206;-79
2023/08/26 19:52:42;;;;;;;13.48;8.88;;;23.80;99.90;;;;;;4806429;29;20233;-78
2023/08/26 19:55:26;;;;;;;15.40;9.90;;;23.80;99.90;;;;;;4819358;29;20207;-78
2023/08/26 19:58:30;;;;;;;15.85;9.65;;;23.70;99.90;;;;;;4828976;29;20289;-83
2023/08/26 20:01:06;;;;;;;12.93;8.93;;;23.60;99.90;;;;;;4849752;29;20216;-83
2023/08/26 20:03:34;;;;;;;20.48;9.65;;;23.60;99.90;;;;;;4866036;29;20211;-84
2023/08/26 20:06:09;;;;;;;14.00;8.07;;;23.60;99.90;;;;;;4879422;29;20726;-84
2023/08/26 20:09:10;;;;;;;12.00;8.80;;;23.60;99.90;;;;;;4923159;29;20682;-80
2023/08/26 20:12:04;;;;;;;18.70;9.05;;;23.60;99.90;;;;;;4936002;29;20665;-79
2023/08/26 20:15:01;;;;;;;12.68;9.15;;;23.50;99.90;;;;;;4937534;29;20213;-78
2023/08/26 20:17:56;;;;;;;12.05;8.75;;;23.40;99.90;;;;;;4958619;28;20280;-78
2023/08/26 20:20:31;;;;;;;12.48;9.07;;;23.40;99.90;;;;;;4972478;28;20232;-78
2023/08/26 20:23:19;;;;;;;;;;;;;;;;;;;;;
2023/08/26 20:26:17;;;;;;;13.33;8.93;;;23.30;99.90;;;;;;4954699;28;20197;-78
2023/08/26 20:28:48;;;;;;;15.20;9.17;;;23.40;99.90;;;;;;4953702;28;20571;-78
2023/08/26 20:31:27;;;;;;;14.60;8.93;;;23.40;99.90;;;;;;4970467;28;20212;-78
2023/08/26 20:34:47;;;;;;;13.37;9.23;;;23.30;99.90;;;;;;4972548;28;20200;-78
2023/08/26 20:37:43;;;;;;;13.80;9.25;;;23.30;99.90;;;;;;4972924;28;20225;-78
2023/08/26 20:40:27;;;;;;;13.00;9.10;;;23.20;99.90;;;;;;4954260;28;20201;-78
2023/08/26 20:43:41;;;;;;;11.47;8.97;;;23.20;99.90;;;;;;4960411;28;20197;-77
2023/08/26 20:46:18;;;;;;;13.57;9.18;;;23.10;99.90;;;;;;4953413;28;20317;-78
2023/08/26 20:48:51;;;;;;;14.40;9.57;;;23.10;99.90;;;;;;4972612;28;20201;-78
2023/08/26 20:51:37;;;;;;;13.57;9.20;;;23.00;99.90;;;;;;4972903;28;20197;-77
2023/08/26 20:54:12;;;;;;;12.20;9.18;;;23.00;99.90;;;;;;4955008;28;20264;-78
2023/08/26 20:56:44;;;;;;;20.05;10.35;;;23.00;99.90;;;;;;4955682;28;20213;-80
2023/08/26 20:59:28;;;;;;;17.10;10.00;;;23.10;99.90;;;;;;4955216;28;20208;-83
2023/08/26 21:01:58;;;;;;;15.75;9.52;;;23.00;99.90;;;;;;4955829;28;20205;-83
2023/08/26 21:04:39;;;;;;;15.68;9.48;;;23.00;99.90;;;;;;4958016;28;20201;-82
2023/08/26 21:07:25;;;;;;;13.93;9.97;;;22.90;99.90;;;;;;4944034;28;20221;-80
2023/08/26 21:10:34;;;;;;;12.20;9.88;;;22.90;99.90;;;;;;4960233;28;20205;-79
2023/08/26 21:13:11;;;;;;;13.40;9.43;;;22.90;99.90;;;;;;4974346;28;20716;-79
2023/08/26 21:15:42;;;;;;;11.30;9.35;;;22.90;99.90;;;;;;4975799;28;20188;-79
2023/08/26 21:18:29;;;;;;;17.17;9.80;;;22.80;99.90;;;;;;4958191;28;20213;-80
2023/08/26 21:21:18;;;;;;;16.50;9.95;;;22.70;99.90;;;;;;4957323;28;20261;-80
2023/08/26 21:24:00;;;;;;;12.90;9.27;;;22.70;99.90;;;;;;4959788;28;20212;-80
2023/08/26 21:26:47;;;;;;;14.57;9.53;;;22.70;99.90;;;;;;4958201;28;20201;-80
2023/08/26 21:29:19;;;;;;;14.27;9.57;;;22.60;99.90;;;;;;4958160;28;20202;-79
2023/08/26 21:31:55;;;;;;;11.50;9.30;;;22.60;99.90;;;;;;4958878;28;20652;-79
2023/08/26 21:35:00;;;;;;;15.30;9.80;;;22.60;99.90;;;;;;4957877;28;20201;-82
2023/08/26 21:54:34;;;;;;;14.77;9.43;;;22.50;99.90;;;;;;4891913;29;20574;-85
2023/08/26 21:58:30;;;;;;;13.43;10.10;;;22.40;99.90;;;;;;4875072;29;20287;-84
2023/08/26 22:01:53;;;;;;;21.77;10.83;;;22.40;99.90;;;;;;4867139;29;20406;-83
2023/08/26 22:05:23;;;;;;;;;;;;;;;;;;;;;
2023/08/26 22:12:25;;;;;;;18.10;10.40;;;22.30;99.90;;;;;;4799193;29;20509;-82
2023/08/26 22:18:10;;;;;;;14.63;9.80;;;22.30;99.90;;;;;;4795879;29;20270;-84
2023/08/26 22:22:04;;;;;;;;;;;;;;;;;;;;;
2023/08/26 22:25:13;;;;;;;13.17;9.67;;;22.20;99.90;;;;;;4783789;30;20246;-84
2023/08/26 22:27:52;;;;;;;16.20;10.00;;;22.20;99.90;;;;;;4735825;30;20262;-82
2023/08/26 22:31:02;;;;;;;16.23;9.90;;;22.10;99.90;;;;;;4753655;30;20204;-83
2023/08/26 22:33:44;;;;;;;18.63;10.77;;;22.20;99.90;;;;;;4771275;30;20208;-84
2023/08/26 22:36:50;;;;;;;15.47;9.83;;;22.30;99.90;;;;;;4769672;30;20293;-83
2023/08/26 22:40:50;;;;;;;;;;;;;;;;;;;;;
2023/08/26 22:44:23;;;;;;;14.30;9.97;;;22.10;99.90;;;;;;4701110;30;20194;-83
2023/08/26 22:47:57;;;;;;;16.57;10.27;;;22.00;99.90;;;;;;4716566;30;20289;-83
2023/08/26 23:22:11;;;;;;;13.77;11.17;;;21.80;99.90;;;;;;5147926;27;20942;-83
2023/08/26 23:24:58;;;;;;;17.47;11.53;;;22.00;99.90;;;;;;5112881;28;20192;-84
2023/08/26 23:28:35;;;;;;;20.10;11.67;;;21.80;99.90;;;;;;5128105;28;20180;-82
2023/08/26 23:31:48;;;;;;;17.97;11.20;;;21.90;99.90;;;;;;5115283;28;20220;-82
2023/08/26 23:35:08;;;;;;;15.13;10.53;;;21.80;99.90;;;;;;5127861;28;20635;-86
2023/08/26 23:38:06;;;;;;;17.23;11.17;;;21.80;99.90;;;;;;5192050;22;20258;-82
2023/08/26 23:44:25;;;;;;;19.50;11.60;;;21.70;99.90;;;;;;5044994;28;20195;-82
2023/08/26 23:47:06;;;;;;;15.40;10.57;;;21.60;99.90;;;;;;5045580;28;20195;-82
2023/08/26 23:49:48;;;;;;;14.50;10.87;;;21.60;99.90;;;;;;5013429;28;20210;-82
2023/08/26 23:52:18;;;;;;;16.33;11.43;;;21.60;99.90;;;;;;5045784;28;20247;-81
2023/08/26 23:55:04;;;;;;;16.63;11.43;;;21.60;99.90;;;;;;5013331;28;20198;-81
2023/08/26 23:57:43;;;;;;;17.60;11.37;;;21.50;99.90;;;;;;5028766;28;20199;-82
